Time;durP1;ratioP1;P1;durP2;ratioP2;P2;SDS_P1;SDS_P2;PMS_P1;PMS_P2;Temp;Humidity;BMP_temperature;BMP_pressure;BME280_temperature;BME280_humidity;BME280_pressure;Samples;Min_cycle;Max_cycle;Signal;HPM_P1;HPM_P2
2022/07/06 00:01:34;;;;;;;0.75;0.45;;;17.90;99.90;;;;;;4992860;28;20080;-76
2022/07/06 00:04:02;;;;;;;0.10;0.10;;;17.90;99.90;;;;;;4992748;28;20109;-74
2022/07/06 00:06:28;;;;;;;0.10;0.10;;;18.10;99.90;;;;;;4992703;28;20421;-76
2022/07/06 00:08:53;;;;;;;0.15;0.15;;;18.00;99.90;;;;;;4992357;28;20258;-76
2022/07/06 00:11:20;;;;;;;0.50;0.50;;;18.00;99.90;;;;;;4991329;28;20049;-74
2022/07/06 00:13:46;;;;;;;0.28;0.28;;;18.10;99.90;;;;;;4991558;28;20502;-74
2022/07/06 00:16:12;;;;;;;0.10;0.10;;;18.10;99.90;;;;;;4992638;28;20026;-76
2022/07/06 00:18:38;;;;;;;0.25;0.25;;;18.00;99.90;;;;;;4992603;28;20026;-76
2022/07/06 00:21:03;;;;;;;0.15;0.15;;;18.10;99.90;;;;;;4992422;28;20053;-74
2022/07/06 00:23:29;;;;;;;2.10;0.63;;;18.20;99.90;;;;;;4991256;28;20101;-74
2022/07/06 00:25:55;;;;;;;3.83;1.30;;;18.20;99.90;;;;;;4992540;28;20500;-74
2022/07/06 00:28:20;;;;;;;0.43;0.43;;;18.20;99.90;;;;;;4992551;28;20026;-76
2022/07/06 00:30:46;;;;;;;0.20;0.20;;;18.10;99.90;;;;;;4992391;28;20089;-76
2022/07/06 00:33:12;;;;;;;0.20;0.20;;;18.10;99.90;;;;;;4992430;28;20030;-76
2022/07/06 00:35:38;;;;;;;0.32;0.30;;;18.10;99.90;;;;;;4992555;28;20027;-76
2022/07/06 00:38:04;;;;;;;0.10;0.10;;;18.10;99.90;;;;;;4992404;28;20542;-74
2022/07/06 00:40:30;;;;;;;0.03;0.03;;;18.20;99.90;;;;;;4992181;28;20027;-76
2022/07/06 00:42:56;;;;;;;0.25;0.25;;;18.10;99.90;;;;;;4991084;28;20545;-75
2022/07/06 00:45:22;;;;;;;0.10;0.10;;;18.00;99.90;;;;;;4992302;28;20109;-75
2022/07/06 00:47:48;;;;;;;0.10;0.10;;;18.00;99.90;;;;;;4991064;28;20027;-75
2022/07/06 00:50:22;;;;;;;0.52;0.40;;;18.10;99.90;;;;;;4992180;28;20033;-74
2022/07/06 00:52:53;;;;;;;1.02;0.47;;;18.20;99.90;;;;;;4992195;28;20049;-75
2022/07/06 00:55:24;;;;;;;0.20;0.20;;;18.30;99.90;;;;;;4992260;28;20117;-75
2022/07/06 00:57:51;;;;;;;0.52;0.52;;;18.40;99.90;;;;;;4992470;28;20065;-75
2022/07/06 01:00:19;;;;;;;0.10;0.10;;;18.40;99.90;;;;;;4992807;28;20401;-75
2022/07/06 01:02:46;;;;;;;0.10;0.10;;;18.30;99.90;;;;;;4994843;28;20058;-75
2022/07/06 01:05:13;;;;;;;0.10;0.10;;;18.20;99.90;;;;;;4994635;28;20027;-75
2022/07/06 01:07:41;;;;;;;0.32;0.22;;;18.10;99.90;;;;;;4994402;28;20030;-75
2022/07/06 01:10:09;;;;;;;0.10;0.10;;;18.30;99.90;;;;;;4996000;28;20467;-75
2022/07/06 01:12:38;;;;;;;0.10;0.10;;;18.30;99.90;;;;;;4995827;28;20040;-75
2022/07/06 01:15:06;;;;;;;0.10;0.10;;;18.10;99.90;;;;;;4995819;28;20015;-74
2022/07/06 01:17:33;;;;;;;0.10;0.10;;;18.00;99.90;;;;;;4995777;28;20081;-74
2022/07/06 01:20:15;;;;;;;0.10;0.10;;;18.10;99.90;;;;;;4995500;28;20042;-74
2022/07/06 01:22:41;;;;;;;0.10;0.10;;;18.00;99.90;;;;;;4995714;28;20023;-74
2022/07/06 01:25:07;;;;;;;0.20;0.20;;;18.10;99.90;;;;;;4995624;28;20034;-74
2022/07/06 01:27:40;;;;;;;0.10;0.10;;;18.00;99.90;;;;;;4995573;28;20636;-74
2022/07/06 01:30:15;;;;;;;0.10;0.10;;;17.90;99.90;;;;;;4995180;28;20105;-74
2022/07/06 01:32:41;;;;;;;0.10;0.10;;;17.80;99.90;;;;;;4995444;28;20026;-74
2022/07/06 01:35:09;;;;;;;0.10;0.10;;;17.80;99.90;;;;;;4995405;28;20423;-74
2022/07/06 01:37:36;;;;;;;0.00;0.00;;;17.80;99.90;;;;;;4994025;28;20485;-75
2022/07/06 01:40:05;;;;;;;0.00;0.00;;;17.90;99.90;;;;;;4994012;28;20019;-75
2022/07/06 01:42:30;;;;;;;0.10;0.10;;;17.90;99.90;;;;;;4995232;28;20026;-75
2022/07/06 01:44:56;;;;;;;0.10;0.10;;;17.90;99.90;;;;;;4993859;28;20041;-75
2022/07/06 01:47:22;;;;;;;0.10;0.10;;;17.90;99.90;;;;;;4995214;28;20026;-75
2022/07/06 01:49:49;;;;;;;0.20;0.20;;;18.00;99.90;;;;;;4994933;28;20027;-75
2022/07/06 01:52:15;;;;;;;0.10;0.10;;;18.10;99.90;;;;;;4994977;28;20034;-75
2022/07/06 01:54:41;;;;;;;0.10;0.10;;;18.00;99.90;;;;;;4995088;28;20022;-75
2022/07/06 01:57:07;;;;;;;0.10;0.10;;;18.00;99.90;;;;;;4994989;28;20031;-74
2022/07/06 01:59:33;;;;;;;0.47;0.47;;;18.00;99.90;;;;;;4994933;28;20459;-75
2022/07/06 02:01:59;;;;;;;0.10;0.10;;;17.90;99.90;;;;;;4993679;28;20516;-75
2022/07/06 02:04:24;;;;;;;0.10;0.10;;;18.00;99.90;;;;;;4994946;28;20597;-74
2022/07/06 02:06:50;;;;;;;0.10;0.10;;;18.00;99.90;;;;;;4994816;28;20034;-74
2022/07/06 02:09:16;;;;;;;0.10;0.10;;;18.10;99.90;;;;;;4994505;28;20445;-74
2022/07/06 02:11:42;;;;;;;0.05;0.05;;;18.30;99.90;;;;;;4993926;28;20034;-74
2022/07/06 02:14:08;;;;;;;0.00;0.00;;;18.40;99.90;;;;;;4994759;28;20054;-74
2022/07/06 02:16:34;;;;;;;0.20;0.20;;;18.30;99.90;;;;;;4994715;28;20490;-74
2022/07/06 02:19:00;;;;;;;0.10;0.10;;;18.30;99.90;;;;;;4994413;28;20018;-74
2022/07/06 02:21:26;;;;;;;0.10;0.10;;;18.20;99.90;;;;;;4993363;28;20109;-75
2022/07/06 02:23:51;;;;;;;0.00;0.00;;;18.10;99.90;;;;;;4994528;28;20026;-75
2022/07/06 02:26:17;;;;;;;0.00;0.00;;;17.90;99.90;;;;;;4994517;28;20057;-75
2022/07/06 02:28:45;;;;;;;0.00;0.00;;;17.90;99.90;;;;;;4993196;28;20119;-74
2022/07/06 02:31:13;;;;;;;0.63;0.63;;;17.90;99.90;;;;;;4994192;28;20125;-74
2022/07/06 02:33:39;;;;;;;0.10;0.10;;;17.80;99.90;;;;;;4993081;28;20026;-74
2022/07/06 02:36:05;;;;;;;0.10;0.10;;;17.70;99.90;;;;;;4994342;28;20382;-74
2022/07/06 02:38:31;;;;;;;0.10;0.10;;;17.80;99.90;;;;;;4994099;28;20041;-74
2022/07/06 02:40:56;;;;;;;0.10;0.10;;;17.70;99.90;;;;;;4992925;28;20030;-75
2022/07/06 02:43:22;;;;;;;0.10;0.10;;;17.80;99.90;;;;;;4994063;28;20061;-74
2022/07/06 02:45:48;;;;;;;0.10;0.10;;;17.80;99.90;;;;;;4994163;28;20474;-75
2022/07/06 02:48:14;;;;;;;0.10;0.10;;;17.80;99.90;;;;;;4994060;28;20026;-75
2022/07/06 02:50:40;;;;;;;0.03;0.03;;;17.70;99.90;;;;;;4993903;28;20037;-74
2022/07/06 02:53:05;;;;;;;0.95;0.90;;;17.70;99.90;;;;;;4993865;28;20219;-74
2022/07/06 02:55:31;;;;;;;0.00;0.00;;;17.50;99.90;;;;;;4994033;28;20027;-74
2022/07/06 02:57:57;;;;;;;1.80;0.45;;;17.40;99.90;;;;;;4993888;28;20474;-74
2022/07/06 03:00:23;;;;;;;0.20;0.20;;;17.30;99.90;;;;;;4993792;28;20028;-74
2022/07/06 03:02:49;;;;;;;0.13;0.13;;;17.20;99.90;;;;;;4993871;28;20500;-74
2022/07/06 03:05:14;;;;;;;0.10;0.10;;;16.90;99.90;;;;;;4993694;28;20042;-74
2022/07/06 03:07:40;;;;;;;0.10;0.10;;;16.90;99.90;;;;;;4992033;28;20034;-75
2022/07/06 03:10:06;;;;;;;0.10;0.10;;;17.00;99.90;;;;;;4993465;28;20053;-74
2022/07/06 03:12:32;;;;;;;0.30;0.30;;;17.20;99.90;;;;;;4993531;28;20034;-75
2022/07/06 03:14:58;;;;;;;0.10;0.10;;;17.40;99.90;;;;;;4993660;28;20085;-74
2022/07/06 03:17:24;;;;;;;0.10;0.10;;;17.30;99.90;;;;;;4992142;28;20113;-74
2022/07/06 03:19:50;;;;;;;0.08;0.08;;;17.30;99.90;;;;;;4993237;28;20085;-74
2022/07/06 03:22:15;;;;;;;0.10;0.10;;;17.10;99.90;;;;;;4993383;28;20085;-75
2022/07/06 03:24:41;;;;;;;0.10;0.10;;;17.10;99.90;;;;;;4992313;28;20105;-75
2022/07/06 03:27:07;;;;;;;0.10;0.10;;;17.30;99.90;;;;;;4993440;28;20062;-75
2022/07/06 03:29:33;;;;;;;0.10;0.10;;;17.30;99.90;;;;;;4993164;28;20057;-75
2022/07/06 03:31:58;;;;;;;0.20;0.20;;;17.30;99.90;;;;;;4993283;28;20379;-75
2022/07/06 03:34:24;;;;;;;0.20;0.20;;;17.30;99.90;;;;;;4993175;28;20027;-75
2022/07/06 03:36:50;;;;;;;0.10;0.10;;;17.40;99.90;;;;;;4993191;28;20022;-75
2022/07/06 03:39:16;;;;;;;0.10;0.10;;;17.40;99.90;;;;;;4992971;28;20038;-75
2022/07/06 03:41:42;;;;;;;0.20;0.20;;;17.40;99.90;;;;;;4993198;28;20030;-75
2022/07/06 03:44:07;;;;;;;0.30;0.30;;;17.50;99.90;;;;;;4993074;28;20093;-75
2022/07/06 03:46:33;;;;;;;0.10;0.10;;;17.80;99.90;;;;;;4993155;28;20050;-76
2022/07/06 03:48:59;;;;;;;0.10;0.10;;;17.80;99.90;;;;;;4993161;28;20030;-75
2022/07/06 03:51:24;;;;;;;0.00;0.00;;;17.70;99.90;;;;;;4992897;28;20058;-75
2022/07/06 03:53:50;;;;;;;0.10;0.10;;;17.60;99.90;;;;;;4993026;28;20022;-75
2022/07/06 03:56:28;;;;;;;0.10;0.10;;;17.50;99.90;;;;;;4992964;28;20024;-75
2022/07/06 03:58:55;;;;;;;0.30;0.30;;;17.50;99.90;;;;;;4991590;28;20022;-75
2022/07/06 04:01:21;;;;;;;0.10;0.10;;;17.40;99.90;;;;;;4992678;28;20022;-75
2022/07/06 04:03:47;;;;;;;0.10;0.10;;;17.40;99.90;;;;;;4992876;28;20105;-75
2022/07/06 04:06:13;;;;;;;0.20;0.20;;;17.40;99.90;;;;;;4992829;28;20101;-75
2022/07/06 04:08:38;;;;;;;0.20;0.20;;;17.40;99.90;;;;;;4992428;28;20025;-75
2022/07/06 04:11:04;;;;;;;0.08;0.08;;;17.30;99.90;;;;;;4992597;28;20098;-75
2022/07/06 04:13:30;;;;;;;0.10;0.10;;;17.30;99.90;;;;;;4992548;28;20022;-75
2022/07/06 04:15:56;;;;;;;0.10;0.10;;;17.30;99.90;;;;;;4992650;28;20054;-75
2022/07/06 04:18:22;;;;;;;0.10;0.10;;;17.20;99.90;;;;;;4992586;28;20044;-76
2022/07/06 04:20:48;;;;;;;0.10;0.10;;;17.40;99.90;;;;;;4992416;28;20050;-74
2022/07/06 04:23:13;;;;;;;0.10;0.10;;;17.30;99.90;;;;;;4992571;28;20102;-75
2022/07/06 04:25:39;;;;;;;0.10;0.10;;;17.30;99.90;;;;;;4992678;28;20084;-75
2022/07/06 04:28:05;;;;;;;0.10;0.10;;;17.30;99.90;;;;;;4992531;28;20102;-75
2022/07/06 04:30:31;;;;;;;0.10;0.10;;;17.40;99.90;;;;;;4992623;28;20434;-75
2022/07/06 04:32:57;;;;;;;0.10;0.10;;;17.50;99.90;;;;;;4992388;28;20034;-75
2022/07/06 04:35:23;;;;;;;0.10;0.10;;;17.50;99.90;;;;;;4995016;28;20030;-75
2022/07/06 04:37:49;;;;;;;0.10;0.10;;;17.50;99.90;;;;;;4996527;28;20109;-75
2022/07/06 04:40:15;;;;;;;0.10;0.10;;;17.60;99.90;;;;;;4996192;28;20124;-75
2022/07/06 04:42:41;;;;;;;0.10;0.10;;;17.70;99.90;;;;;;4996876;28;20034;-75
2022/07/06 04:45:08;;;;;;;0.10;0.10;;;17.70;99.90;;;;;;4997086;28;20045;-75
2022/07/06 04:47:34;;;;;;;0.10;0.10;;;17.80;99.90;;;;;;4996231;28;20126;-75
2022/07/06 04:50:00;;;;;;;0.10;0.10;;;18.10;99.90;;;;;;4996094;28;20027;-75
2022/07/06 04:52:27;;;;;;;0.10;0.10;;;18.00;99.90;;;;;;4996148;28;20031;-75
2022/07/06 04:54:54;;;;;;;0.20;0.20;;;18.00;99.90;;;;;;4996197;28;20442;-75
2022/07/06 04:57:20;;;;;;;0.10;0.10;;;17.90;99.90;;;;;;4996036;28;20022;-75
2022/07/06 04:59:46;;;;;;;0.08;0.08;;;18.00;99.90;;;;;;4995924;28;20106;-75
2022/07/06 05:02:11;;;;;;;0.10;0.10;;;18.10;99.90;;;;;;4996151;28;20077;-75
2022/07/06 05:04:37;;;;;;;0.10;0.10;;;18.00;99.90;;;;;;4995976;28;20089;-75
2022/07/06 05:07:03;;;;;;;0.10;0.10;;;18.10;99.90;;;;;;4995887;28;20026;-76
2022/07/06 05:09:29;;;;;;;0.10;0.10;;;18.10;99.90;;;;;;4995323;28;20042;-75
2022/07/06 05:11:55;;;;;;;0.10;0.10;;;18.10;99.90;;;;;;4995781;28;20033;-75
2022/07/06 05:14:20;;;;;;;0.10;0.10;;;18.20;99.90;;;;;;4988565;28;20055;-75
2022/07/06 05:16:46;;;;;;;7.03;0.55;;;18.10;99.90;;;;;;4987837;28;20117;-75
2022/07/06 05:19:12;;;;;;;0.90;0.90;;;18.10;99.90;;;;;;4988893;28;20014;-76
2022/07/06 05:21:38;;;;;;;0.10;0.10;;;18.10;99.90;;;;;;4972901;28;20030;-76
2022/07/06 05:24:04;;;;;;;0.10;0.10;;;18.10;99.90;;;;;;4974340;28;20041;-76
2022/07/06 05:26:29;;;;;;;0.10;0.10;;;18.20;99.90;;;;;;4972445;28;20482;-75
2022/07/06 05:28:55;;;;;;;0.10;0.10;;;18.20;99.90;;;;;;4974106;28;20054;-75
2022/07/06 05:31:21;;;;;;;0.10;0.10;;;18.30;99.90;;;;;;4973472;28;20050;-75
2022/07/06 05:33:47;;;;;;;0.10;0.10;;;18.40;99.90;;;;;;4973749;28;20071;-75
2022/07/06 05:36:13;;;;;;;0.20;0.20;;;18.50;99.90;;;;;;4972815;28;20034;-76
2022/07/06 05:38:38;;;;;;;0.20;0.20;;;18.40;99.90;;;;;;4972727;28;20110;-76
2022/07/06 05:41:04;;;;;;;0.10;0.10;;;18.40;99.90;;;;;;4974161;28;20057;-75
2022/07/06 05:43:30;;;;;;;0.10;0.10;;;18.50;99.90;;;;;;4989201;23;20049;-74
2022/07/06 05:45:55;;;;;;;0.22;0.22;;;18.60;99.90;;;;;;4975976;28;20042;-74
2022/07/06 05:51:06;;;;;;;0.10;0.10;;;18.60;99.90;;;;;;4971346;28;20058;-74
2022/07/06 05:53:31;;;;;;;0.20;0.20;;;18.70;99.90;;;;;;4970409;28;20089;-74
2022/07/06 05:55:57;;;;;;;0.22;0.22;;;18.80;99.90;;;;;;4985588;28;20070;-74
2022/07/06 05:58:24;;;;;;;0.30;0.30;;;18.90;99.90;;;;;;4985051;28;20041;-74
2022/07/06 06:00:51;;;;;;;1.33;0.65;;;18.90;99.90;;;;;;4969970;28;20046;-74
2022/07/06 06:03:17;;;;;;;0.15;0.15;;;18.90;99.90;;;;;;4984762;28;20030;-74
2022/07/06 06:05:42;;;;;;;0.10;0.10;;;19.10;99.90;;;;;;4968579;28;20040;-74
2022/07/06 06:08:08;;;;;;;0.10;0.10;;;19.20;99.90;;;;;;4967979;28;20026;-74
2022/07/06 06:10:34;;;;;;;0.10;0.10;;;19.30;99.90;;;;;;4966539;28;20057;-75
2022/07/06 06:13:00;;;;;;;0.05;0.05;;;19.40;99.90;;;;;;4983566;28;20426;-74
2022/07/06 06:15:26;;;;;;;0.00;0.00;;;19.60;99.90;;;;;;4967223;28;20101;-74
2022/07/06 06:17:52;;;;;;;0.10;0.10;;;19.80;99.90;;;;;;4968066;28;20042;-74
2022/07/06 06:20:18;;;;;;;0.10;0.10;;;20.00;99.90;;;;;;4968025;28;20066;-74
2022/07/06 06:22:51;;;;;;;0.08;0.08;;;19.90;99.90;;;;;;4968139;28;20502;-74
2022/07/06 06:25:20;;;;;;;0.40;0.40;;;20.00;99.90;;;;;;4969927;28;20027;-74
2022/07/06 06:27:46;;;;;;;0.15;0.15;;;20.00;99.90;;;;;;4984441;28;20100;-75
2022/07/06 06:30:13;;;;;;;0.10;0.10;;;20.00;99.90;;;;;;4982811;28;20603;-75
2022/07/06 06:32:41;;;;;;;0.10;0.10;;;20.10;99.90;;;;;;4968987;28;20035;-75
2022/07/06 06:35:07;;;;;;;0.10;0.10;;;20.30;99.90;;;;;;4970295;28;20448;-74
2022/07/06 06:37:34;;;;;;;0.10;0.10;;;20.10;99.90;;;;;;4969668;28;20061;-74
2022/07/06 06:40:00;;;;;;;0.10;0.10;;;20.00;99.90;;;;;;4969679;28;20924;-74
2022/07/06 06:42:26;;;;;;;0.10;0.10;;;19.90;99.90;;;;;;4969144;28;20027;-74
2022/07/06 06:44:52;;;;;;;0.20;0.20;;;19.80;99.90;;;;;;4968173;28;20473;-74
2022/07/06 06:47:19;;;;;;;0.28;0.28;;;19.70;99.90;;;;;;4968981;28;20142;-74
2022/07/06 06:49:44;;;;;;;0.10;0.10;;;19.70;99.90;;;;;;4969093;28;20034;-74
2022/07/06 06:52:10;;;;;;;0.10;0.10;;;19.80;99.90;;;;;;4967652;28;20031;-74
2022/07/06 06:54:36;;;;;;;0.10;0.10;;;19.90;99.90;;;;;;4966401;28;20530;-74
2022/07/06 06:57:02;;;;;;;0.30;0.30;;;20.30;99.90;;;;;;4966606;28;20093;-75
2022/07/06 06:59:27;;;;;;;0.00;0.00;;;20.50;99.90;;;;;;4964664;28;20023;-74
2022/07/06 07:01:53;;;;;;;0.10;0.10;;;20.60;99.90;;;;;;4962593;28;20065;-75
2022/07/06 07:04:19;;;;;;;0.40;0.40;;;20.40;99.90;;;;;;4965868;28;20062;-74
2022/07/06 07:06:44;;;;;;;0.10;0.10;;;20.20;99.90;;;;;;4980665;28;20038;-74
2022/07/06 07:09:10;;;;;;;0.57;0.57;;;20.20;99.90;;;;;;4963077;28;20031;-74
2022/07/06 07:11:36;;;;;;;0.22;0.22;;;20.30;99.90;;;;;;4963246;28;20034;-74
2022/07/06 07:14:02;;;;;;;0.10;0.10;;;20.10;99.90;;;;;;4964231;28;20058;-74
2022/07/06 07:16:28;;;;;;;20.05;5.68;;;20.10;99.90;;;;;;4966574;28;20039;-74
2022/07/06 07:18:54;;;;;;;0.10;0.10;;;20.10;99.90;;;;;;4948493;28;20113;-74
2022/07/06 07:21:20;;;;;;;0.10;0.10;;;20.20;99.90;;;;;;4983254;28;20108;-79
2022/07/06 07:23:46;;;;;;;0.30;0.30;;;20.20;99.90;;;;;;4965337;28;20141;-73
2022/07/06 07:26:11;;;;;;;2.95;0.82;;;20.10;99.90;;;;;;4964970;28;20101;-74
2022/07/06 07:28:37;;;;;;;0.10;0.10;;;20.40;99.90;;;;;;4965038;28;20411;-74
2022/07/06 07:31:04;;;;;;;0.50;0.50;;;20.60;99.90;;;;;;4965528;28;20458;-73
2022/07/06 07:33:30;;;;;;;0.10;0.10;;;20.50;99.90;;;;;;4962984;28;20081;-73
2022/07/06 07:35:56;;;;;;;0.00;0.00;;;20.40;99.90;;;;;;4964945;28;20077;-74
2022/07/06 07:38:22;;;;;;;0.10;0.10;;;20.70;99.90;;;;;;4964742;28;20498;-74
2022/07/06 07:40:48;;;;;;;0.45;0.45;;;20.70;99.90;;;;;;4965100;28;20403;-74
2022/07/06 07:43:13;;;;;;;0.25;0.25;;;20.90;99.90;;;;;;4965342;28;20034;-74
2022/07/06 07:45:39;;;;;;;0.10;0.10;;;20.70;99.90;;;;;;4963214;28;20125;-74
2022/07/06 07:48:05;;;;;;;0.10;0.10;;;20.50;99.90;;;;;;4963784;28;20062;-77
2022/07/06 07:50:31;;;;;;;6.35;0.75;;;20.70;99.90;;;;;;4964778;28;20085;-74
2022/07/06 07:52:57;;;;;;;0.35;0.35;;;21.30;99.90;;;;;;4963682;28;20031;-77
2022/07/06 07:55:23;;;;;;;0.15;0.15;;;21.40;99.90;;;;;;4964198;28;20033;-74
2022/07/06 07:57:49;;;;;;;0.13;0.13;;;21.80;99.90;;;;;;4964065;28;20035;-74
2022/07/06 08:00:15;;;;;;;0.00;0.00;;;21.80;99.90;;;;;;4963963;28;20039;-75
2022/07/06 08:02:40;;;;;;;0.03;0.03;;;22.10;99.30;;;;;;4964821;28;21009;-74
2022/07/06 08:05:07;;;;;;;0.00;0.00;;;22.20;97.70;;;;;;4964772;28;20109;-74
2022/07/06 08:07:33;;;;;;;0.10;0.10;;;22.50;97.50;;;;;;4962704;28;20038;-74
2022/07/06 08:09:58;;;;;;;0.22;0.22;;;22.90;95.90;;;;;;4963493;28;20086;-74
2022/07/06 08:12:24;;;;;;;0.00;0.00;;;23.10;94.80;;;;;;4964052;28;20035;-74
2022/07/06 08:14:50;;;;;;;0.43;0.43;;;23.20;96.70;;;;;;4964746;28;20029;-75
2022/07/06 08:17:16;;;;;;;0.15;0.10;;;22.90;93.80;;;;;;4964119;28;20129;-74
2022/07/06 08:19:41;;;;;;;0.00;0.00;;;22.90;94.10;;;;;;4978561;28;20035;-73
2022/07/06 08:22:08;;;;;;;0.85;0.50;;;23.30;93.00;;;;;;4963805;28;20039;-74
2022/07/06 08:24:34;;;;;;;0.00;0.00;;;23.40;91.80;;;;;;4964516;28;20034;-74
2022/07/06 08:27:00;;;;;;;0.10;0.10;;;23.00;91.50;;;;;;4978782;28;20037;-74
2022/07/06 08:29:26;;;;;;;0.40;0.40;;;23.20;92.10;;;;;;4964312;28;20039;-74
2022/07/06 08:31:51;;;;;;;0.03;0.03;;;23.10;90.50;;;;;;4964525;28;20034;-73
2022/07/06 08:34:17;;;;;;;0.00;0.00;;;23.30;88.80;;;;;;4962071;28;20149;-75
2022/07/06 08:36:46;;;;;;;0.10;0.10;;;23.40;90.00;;;;;;4963144;28;20031;-75
2022/07/06 08:39:11;;;;;;;0.10;0.10;;;23.30;87.10;;;;;;4962959;28;20031;-74
2022/07/06 08:41:41;;;;;;;0.30;0.30;;;23.30;87.30;;;;;;4964459;28;20494;-74
2022/07/06 08:44:08;;;;;;;0.52;0.20;;;23.00;88.20;;;;;;4961229;28;20046;-73
2022/07/06 08:46:37;;;;;;;0.60;0.60;;;23.30;89.80;;;;;;4978118;28;20031;-75
2022/07/06 08:49:05;;;;;;;0.75;0.65;;;23.40;86.20;;;;;;4962024;28;20034;-74
2022/07/06 08:51:31;;;;;;;0.00;0.00;;;23.30;87.80;;;;;;4961584;28;20038;-73
2022/07/06 08:53:58;;;;;;;0.10;0.10;;;23.40;88.10;;;;;;4978081;28;20027;-74
2022/07/06 08:56:25;;;;;;;0.00;0.00;;;23.10;88.00;;;;;;4962558;28;20037;-74
2022/07/06 08:58:51;;;;;;;0.00;0.00;;;23.40;89.10;;;;;;4961891;28;20061;-73
2022/07/06 09:01:17;;;;;;;0.00;0.00;;;24.10;86.00;;;;;;4961656;28;20479;-74
2022/07/06 09:03:48;;;;;;;0.00;0.00;;;24.20;84.10;;;;;;4961379;28;20035;-74
2022/07/06 09:06:25;;;;;;;0.00;0.00;;;24.50;80.80;;;;;;4962348;28;20023;-73
2022/07/06 09:08:54;;;;;;;0.00;0.00;;;24.40;78.80;;;;;;4944091;28;20042;-72
2022/07/06 09:11:21;;;;;;;1.02;0.77;;;24.40;77.10;;;;;;4976809;28;20078;-73
2022/07/06 09:13:48;;;;;;;0.05;0.05;;;24.00;76.70;;;;;;4960574;28;20130;-73
2022/07/06 09:16:15;;;;;;;0.25;0.25;;;24.50;80.30;;;;;;4960916;28;20565;-75
2022/07/06 09:18:44;;;;;;;0.52;0.52;;;25.20;75.30;;;;;;4975575;28;20126;-74
2022/07/06 09:21:11;;;;;;;0.03;0.03;;;24.90;73.60;;;;;;4963522;28;20376;-73
2022/07/06 09:23:37;;;;;;;0.05;0.05;;;24.80;74.60;;;;;;4964989;28;20113;-74
2022/07/06 09:26:06;;;;;;;0.00;0.00;;;24.70;75.50;;;;;;4965111;28;20449;-74
2022/07/06 09:28:44;;;;;;;0.55;0.35;;;24.50;76.80;;;;;;4963327;28;20081;-74
2022/07/06 09:31:12;;;;;;;0.08;0.08;;;24.90;73.80;;;;;;4965020;28;20065;-75
2022/07/06 09:33:56;;;;;;;0.00;0.00;;;25.30;69.40;;;;;;4947897;28;20058;-74
2022/07/06 09:36:46;;;;;;;0.03;0.03;;;25.50;70.40;;;;;;4964447;28;20034;-73
2022/07/06 09:39:24;;;;;;;0.22;0.22;;;25.80;66.50;;;;;;4964451;28;20031;-73
2022/07/06 09:41:59;;;;;;;0.10;0.10;;;26.10;65.00;;;;;;4964910;28;20378;-74
2022/07/06 09:44:32;;;;;;;0.10;0.10;;;25.80;63.20;;;;;;4964601;28;20509;-73
2022/07/06 09:47:03;;;;;;;0.10;0.10;;;25.50;64.30;;;;;;4980485;28;20515;-74
2022/07/06 09:49:30;;;;;;;0.00;0.00;;;25.80;63.40;;;;;;4963319;28;20031;-74
2022/07/06 09:51:58;;;;;;;0.20;0.20;;;25.50;63.90;;;;;;4980206;28;20054;-73
2022/07/06 09:54:24;;;;;;;1.23;0.25;;;25.30;62.80;;;;;;4964982;28;20030;-74
2022/07/06 09:56:51;;;;;;;0.00;0.00;;;25.80;64.60;;;;;;4964746;28;20485;-73
2022/07/06 09:59:26;;;;;;;0.28;0.28;;;25.80;64.30;;;;;;4965210;28;20511;-73
2022/07/06 10:01:54;;;;;;;0.40;0.40;;;26.30;63.60;;;;;;4966809;28;20030;-75
2022/07/06 10:04:20;;;;;;;0.20;0.20;;;25.70;62.70;;;;;;4968208;28;20291;-75
2022/07/06 10:06:47;;;;;;;0.10;0.10;;;25.30;65.00;;;;;;4968092;28;20603;-74
2022/07/06 10:09:14;;;;;;;0.03;0.03;;;25.70;66.40;;;;;;4969937;28;20367;-75
2022/07/06 10:11:53;;;;;;;0.28;0.28;;;26.20;60.90;;;;;;4968720;28;20462;-75
2022/07/06 10:14:24;;;;;;;0.00;0.00;;;25.70;62.90;;;;;;4969063;28;20117;-75
2022/07/06 10:16:51;;;;;;;0.00;0.00;;;26.00;60.50;;;;;;4970495;28;20122;-75
2022/07/06 10:19:19;;;;;;;0.55;0.50;;;26.40;56.80;;;;;;4972036;28;20137;-74
2022/07/06 10:21:46;;;;;;;0.00;0.00;;;26.30;55.80;;;;;;4972099;28;20047;-77
2022/07/06 10:24:13;;;;;;;0.20;0.20;;;26.20;55.20;;;;;;4972104;28;20039;-74
2022/07/06 10:26:39;;;;;;;0.10;0.10;;;26.70;55.10;;;;;;4967586;28;20566;-73
2022/07/06 10:29:06;;;;;;;0.10;0.10;;;27.20;55.50;;;;;;4966408;28;20066;-74
2022/07/06 10:31:34;;;;;;;0.00;0.00;;;27.60;51.80;;;;;;4967161;28;20031;-74
2022/07/06 10:34:05;;;;;;;0.00;0.00;;;27.90;52.30;;;;;;4971201;28;20027;-74
2022/07/06 10:36:36;;;;;;;0.03;0.03;;;28.30;50.90;;;;;;4972003;28;20431;-75
2022/07/06 10:41:02;;;;;;;0.00;0.00;;;28.40;51.00;;;;;;4971710;28;20019;-75
2022/07/06 10:41:47;;;;;;;0.08;0.03;;;28.10;53.10;;;;;;4970092;28;20042;-73
2022/07/06 10:44:18;;;;;;;0.00;0.00;;;28.30;52.70;;;;;;4970601;28;20037;-73
2022/07/06 10:46:59;;;;;;;0.10;0.10;;;27.80;49.20;;;;;;4971824;28;20129;-75
2022/07/06 10:49:27;;;;;;;0.93;0.13;;;28.30;48.70;;;;;;4986212;28;20409;-74
2022/07/06 10:51:56;;;;;;;1.27;0.55;;;28.30;49.20;;;;;;4971443;28;20034;-75
2022/07/06 10:54:22;;;;;;;0.00;0.00;;;27.80;49.30;;;;;;4971408;28;20045;-74
2022/07/06 10:56:52;;;;;;;0.00;0.00;;;27.90;49.90;;;;;;4972055;28;20513;-75
2022/07/06 10:59:22;;;;;;;0.10;0.10;;;28.20;52.10;;;;;;4971830;28;20918;-74
2022/07/06 11:02:17;;;;;;;0.88;0.55;;;28.40;49.00;;;;;;4971463;28;20046;-74
2022/07/06 11:04:47;;;;;;;0.08;0.08;;;28.80;48.50;;;;;;4971102;28;20062;-76
2022/07/06 11:07:18;;;;;;;0.57;0.10;;;29.00;50.50;;;;;;4971411;28;20442;-74
2022/07/06 11:09:55;;;;;;;0.00;0.00;;;28.70;49.10;;;;;;4971331;28;20466;-74
2022/07/06 11:12:21;;;;;;;0.38;0.38;;;28.60;49.10;;;;;;4971702;28;20122;-75
2022/07/06 11:14:48;;;;;;;0.00;0.00;;;28.70;49.10;;;;;;4970282;28;20027;-75
2022/07/06 11:17:15;;;;;;;0.00;0.00;;;28.50;47.60;;;;;;4970289;28;20498;-75
2022/07/06 11:19:55;;;;;;;0.00;0.00;;;28.70;49.20;;;;;;4968455;28;20030;-76
2022/07/06 11:22:24;;;;;;;0.17;0.17;;;28.90;48.80;;;;;;4966529;28;20035;-75
2022/07/06 11:24:51;;;;;;;0.20;0.20;;;28.20;49.60;;;;;;4967214;28;20030;-73
2022/07/06 11:27:17;;;;;;;0.45;0.45;;;27.60;50.10;;;;;;4967823;28;20027;-78
2022/07/06 11:29:44;;;;;;;0.30;0.30;;;28.00;49.50;;;;;;4971010;28;20034;-78
2022/07/06 11:32:13;;;;;;;0.00;0.00;;;28.00;49.70;;;;;;4968891;28;20693;-82
2022/07/06 11:34:42;;;;;;;0.00;0.00;;;28.10;50.30;;;;;;4966896;28;20122;-79
2022/07/06 11:37:13;;;;;;;0.10;0.10;;;28.00;49.20;;;;;;4971068;28;20027;-79
2022/07/06 11:39:43;;;;;;;0.30;0.30;;;27.90;49.80;;;;;;4966629;28;20035;-79
2022/07/06 11:42:11;;;;;;;0.10;0.10;;;27.80;50.00;;;;;;4969846;28;20034;-78
2022/07/06 11:44:38;;;;;;;0.00;0.00;;;28.20;48.60;;;;;;4984139;23;20686;-78
2022/07/06 11:47:05;;;;;;;0.20;0.20;;;28.40;47.40;;;;;;4959493;28;20042;-77
2022/07/06 11:49:31;;;;;;;0.00;0.00;;;28.60;49.00;;;;;;4973617;28;20064;-77
2022/07/06 11:51:57;;;;;;;0.00;0.00;;;28.50;49.20;;;;;;4955509;28;20130;-77
2022/07/06 11:54:24;;;;;;;0.22;0.22;;;28.80;49.10;;;;;;4971896;28;20101;-76
2022/07/06 11:56:55;;;;;;;0.35;0.35;;;28.40;47.00;;;;;;4973156;28;20041;-76
2022/07/06 11:59:23;;;;;;;2.20;0.32;;;27.80;48.20;;;;;;4969759;28;20027;-76
2022/07/06 12:01:50;;;;;;;0.10;0.10;;;27.70;48.90;;;;;;4971126;28;20565;-77
2022/07/06 12:04:15;;;;;;;0.00;0.00;;;27.60;48.60;;;;;;4955734;28;20038;-76
2022/07/06 12:06:44;;;;;;;0.00;0.00;;;27.80;48.70;;;;;;4969651;28;20928;-77
2022/07/06 12:09:10;;;;;;;0.03;0.03;;;28.30;48.20;;;;;;4972376;28;20031;-78
2022/07/06 12:11:37;;;;;;;0.25;0.25;;;28.00;47.50;;;;;;4976633;28;20044;-77
2022/07/06 12:14:16;;;;;;;0.00;0.00;;;27.90;49.00;;;;;;4972702;28;20030;-77
2022/07/06 12:16:43;;;;;;;0.00;0.00;;;28.20;47.30;;;;;;4973815;28;20054;-77
2022/07/06 12:19:11;;;;;;;0.15;0.15;;;28.50;46.60;;;;;;4988286;28;20038;-77
2022/07/06 12:21:43;;;;;;;3.78;0.90;;;28.20;46.20;;;;;;4973263;28;20430;-77
2022/07/06 12:24:09;;;;;;;0.03;0.03;;;27.50;47.70;;;;;;4954834;28;20035;-77
2022/07/06 12:26:40;;;;;;;0.63;0.63;;;27.50;45.10;;;;;;4975248;28;20062;-78
2022/07/06 12:29:10;;;;;;;;;;;27.60;45.80;;;;;;4959591;28;20117;-77
2022/07/06 12:31:38;;;;;;;1.75;0.55;;;27.40;46.20;;;;;;4971990;28;20012;-77
2022/07/06 12:34:05;;;;;;;0.00;0.00;;;27.30;46.50;;;;;;4972959;28;20026;-77
2022/07/06 12:36:41;;;;;;;3.60;0.57;;;27.50;47.20;;;;;;4957599;28;20038;-77
2022/07/06 12:39:12;;;;;;;0.10;0.10;;;27.70;46.40;;;;;;4990437;28;20176;-77
2022/07/06 12:42:00;;;;;;;0.00;0.00;;;27.40;46.50;;;;;;4957205;28;20074;-77
2022/07/06 12:44:26;;;;;;;0.00;0.00;;;27.40;48.30;;;;;;4971588;28;20043;-77
2022/07/06 12:47:03;;;;;;;0.05;0.05;;;27.50;47.30;;;;;;4973499;28;20125;-77
2022/07/06 12:49:29;;;;;;;0.00;0.00;;;27.70;46.20;;;;;;4958154;28;20453;-77
2022/07/06 12:52:07;;;;;;;0.20;0.20;;;27.70;44.30;;;;;;4972582;28;20030;-77